Time;durP1;ratioP1;P1;durP2;ratioP2;P2;SDS_P1;SDS_P2;PMS_P1;PMS_P2;Temp;Humidity;BMP_temperature;BMP_pressure;BME280_temperature;BME280_humidity;BME280_pressure;Samples;Min_cycle;Max_cycle;Signal;HPM_P1;HPM_P2
2021/12/14 00:02:13;;;;;;;22.90;8.60;;;3.20;91.80;;;;;;5053912;28;20025;-72
2021/12/14 00:04:39;;;;;;;15.93;8.63;;;3.20;91.60;;;;;;5035955;28;20454;-73
2021/12/14 00:07:09;;;;;;;15.48;7.40;;;3.20;91.70;;;;;;5053865;28;20529;-74
2021/12/14 00:09:36;;;;;;;17.08;8.75;;;3.30;91.70;;;;;;5053715;28;20026;-72
2021/12/14 00:12:32;;;;;;;32.53;7.75;;;3.30;91.50;;;;;;5053593;28;20025;-73
2021/12/14 00:15:11;;;;;;;16.38;8.23;;;3.20;91.10;;;;;;5053663;28;20451;-73
2021/12/14 00:17:43;;;;;;;15.30;8.38;;;3.20;91.10;;;;;;5053451;28;20041;-73
2021/12/14 00:20:33;;;;;;;10.18;6.38;;;3.20;91.00;;;;;;5053461;28;20013;-74
2021/12/14 00:25:32;;;;;;;12.07;6.80;;;3.10;90.40;;;;;;5053261;28;20044;-72
2021/12/14 00:28:03;;;;;;;12.15;7.53;;;3.10;90.30;;;;;;5053342;28;20028;-72
2021/12/14 00:30:29;;;;;;;12.95;6.07;;;2.90;89.80;;;;;;5053299;28;20035;-72
2021/12/14 00:32:55;;;;;;;12.00;7.10;;;2.90;90.00;;;;;;5053233;28;20053;-73
2021/12/14 00:35:21;;;;;;;9.32;6.18;;;2.90;89.00;;;;;;5053264;28;20546;-73
2021/12/14 00:37:50;;;;;;;10.50;6.82;;;2.80;88.50;;;;;;5053244;28;20028;-73
2021/12/14 00:40:30;;;;;;;9.60;5.57;;;2.70;88.50;;;;;;5053194;28;20033;-74
2021/12/14 00:42:59;;;;;;;8.07;5.82;;;2.70;88.80;;;;;;5053161;28;20032;-73
2021/12/14 00:45:28;;;;;;;9.98;6.18;;;2.70;88.90;;;;;;5053158;28;20025;-73
2021/12/14 00:47:55;;;;;;;14.43;7.45;;;2.70;89.00;;;;;;5053170;28;20419;-72
2021/12/14 00:50:23;;;;;;;12.73;6.95;;;2.70;88.80;;;;;;5053032;28;20017;-73
2021/12/14 00:52:49;;;;;;;16.60;8.68;;;2.70;88.80;;;;;;5052978;28;20028;-73
2021/12/14 00:55:21;;;;;;;12.70;7.60;;;2.70;88.80;;;;;;5052853;28;20021;-73
2021/12/14 00:57:46;;;;;;;15.32;7.78;;;2.70;88.80;;;;;;5053110;28;20029;-73
2021/12/14 01:00:16;;;;;;;13.43;7.65;;;2.60;88.70;;;;;;5052918;28;20047;-73
2021/12/14 01:02:42;;;;;;;12.38;6.90;;;2.60;88.80;;;;;;5052917;28;20021;-73
2021/12/14 01:05:22;;;;;;;11.73;6.75;;;2.60;88.80;;;;;;5052480;28;20053;-72
2021/12/14 01:07:48;;;;;;;9.70;6.00;;;2.60;88.90;;;;;;5052389;28;20049;-72
2021/12/14 01:10:38;;;;;;;7.85;4.65;;;2.60;88.40;;;;;;5052745;28;20410;-72
2021/12/14 01:13:08;;;;;;;5.80;3.78;;;2.60;88.40;;;;;;5052676;28;20029;-72
2021/12/14 01:22:12;;;;;;;8.02;5.45;;;2.50;88.20;;;;;;5052864;28;20031;-72
2021/12/14 01:27:08;;;;;;;5.35;3.70;;;2.50;87.80;;;;;;5052933;28;20024;-72
2021/12/14 01:29:34;;;;;;;5.15;3.55;;;2.50;87.80;;;;;;5052708;28;20079;-72
2021/12/14 01:32:02;;;;;;;6.78;4.32;;;2.50;88.20;;;;;;5052379;28;20033;-72
2021/12/14 01:34:32;;;;;;;6.72;3.92;;;2.40;88.40;;;;;;5052652;28;20029;-72
2021/12/14 01:37:06;;;;;;;6.82;4.28;;;2.40;88.60;;;;;;5052522;28;20087;-72
2021/12/14 01:42:13;;;;;;;7.50;4.55;;;2.40;88.10;;;;;;5052564;28;20037;-73
2021/12/14 01:44:47;;;;;;;9.45;5.13;;;2.40;88.10;;;;;;5052567;28;20041;-72
2021/12/14 01:47:21;;;;;;;8.13;4.28;;;2.40;87.80;;;;;;5052337;28;20120;-73
2021/12/14 01:49:48;;;;;;;6.45;4.30;;;2.40;87.60;;;;;;5052479;28;20043;-72
2021/12/14 01:52:21;;;;;;;4.93;3.20;;;2.40;87.80;;;;;;5052452;28;20064;-73
2021/12/14 01:54:51;;;;;;;5.68;3.75;;;2.30;88.00;;;;;;5034481;28;20021;-72
2021/12/14 01:57:20;;;;;;;5.75;3.50;;;2.30;88.20;;;;;;5052169;28;20029;-72
2021/12/14 01:59:48;;;;;;;6.72;3.50;;;2.30;88.10;;;;;;5052274;28;20025;-72
2021/12/14 02:02:31;;;;;;;7.72;4.25;;;2.20;88.00;;;;;;5052146;28;20033;-73
2021/12/14 02:04:59;;;;;;;7.63;4.50;;;2.20;88.10;;;;;;5052147;28;20017;-72
2021/12/14 02:07:26;;;;;;;13.18;5.95;;;2.20;88.20;;;;;;5034252;28;20086;-73
2021/12/14 02:09:56;;;;;;;11.57;5.53;;;2.20;88.10;;;;;;5052210;28;20025;-72
2021/12/14 02:12:27;;;;;;;8.82;5.40;;;2.30;88.00;;;;;;5052377;28;20032;-75
2021/12/14 02:15:03;;;;;;;12.05;6.80;;;2.30;87.80;;;;;;5052222;28;20278;-72
2021/12/14 02:17:28;;;;;;;;;;;2.20;86.90;;;;;;5053467;28;20040;-72
2021/12/14 02:19:54;;;;;;;9.43;5.05;;;2.10;87.00;;;;;;5037949;28;19904;-73
2021/12/14 02:22:20;;;;;;;11.20;6.15;;;2.10;87.20;;;;;;5055787;28;20037;-72
2021/12/14 02:24:49;;;;;;;12.00;5.90;;;2.10;87.30;;;;;;5037981;28;20021;-74
2021/12/14 02:27:15;;;;;;;11.88;6.45;;;2.20;87.30;;;;;;5037703;28;20091;-73
2021/12/14 02:29:44;;;;;;;10.38;6.07;;;2.20;87.00;;;;;;5037834;28;20025;-73
2021/12/14 02:32:22;;;;;;;10.25;6.00;;;2.20;86.70;;;;;;5037484;28;20052;-73
2021/12/14 02:35:03;;;;;;;10.30;5.03;;;2.20;86.90;;;;;;5037851;28;20087;-72
2021/12/14 02:37:44;;;;;;;8.18;4.88;;;2.20;87.00;;;;;;5037761;28;20128;-72
2021/12/14 02:40:19;;;;;;;9.07;5.00;;;2.20;87.50;;;;;;5037518;28;20112;-72
2021/12/14 02:42:46;;;;;;;;;;;2.20;88.60;;;;;;5038103;28;20063;-73
2021/12/14 02:45:13;;;;;;;7.13;3.60;;;2.20;87.40;;;;;;5037354;28;20316;-72
2021/12/14 02:47:39;;;;;;;6.40;3.70;;;2.10;87.30;;;;;;5037629;28;20033;-72
2021/12/14 02:50:07;;;;;;;7.85;3.70;;;2.10;87.20;;;;;;5037253;28;20079;-73
2021/12/14 02:52:36;;;;;;;8.05;3.92;;;2.10;87.20;;;;;;5037354;28;20072;-73
2021/12/14 02:55:10;;;;;;;5.45;3.78;;;2.20;87.10;;;;;;5037264;28;20376;-74
2021/12/14 02:57:39;;;;;;;5.57;3.17;;;2.20;87.10;;;;;;5037206;28;20052;-73
2021/12/14 03:00:15;;;;;;;4.50;3.00;;;2.10;87.10;;;;;;5036966;28;20056;-74
2021/12/14 03:02:42;;;;;;;8.60;4.68;;;2.10;87.30;;;;;;5037242;28;20032;-74
2021/12/14 03:05:19;;;;;;;7.82;5.22;;;2.10;87.80;;;;;;5037131;28;20520;-74
2021/12/14 03:07:50;;;;;;;5.05;3.53;;;2.00;88.90;;;;;;5037142;28;20021;-73
2021/12/14 03:10:36;;;;;;;6.32;4.07;;;2.00;89.70;;;;;;5020862;28;20033;-73
2021/12/14 03:13:08;;;;;;;5.72;3.60;;;2.00;89.70;;;;;;5037186;28;20017;-73
2021/12/14 03:15:47;;;;;;;4.93;2.90;;;2.10;89.90;;;;;;5037071;28;20025;-73
2021/12/14 03:18:15;;;;;;;4.35;2.78;;;2.00;90.00;;;;;;5037042;28;20079;-73
2021/12/14 03:20:49;;;;;;;4.18;2.25;;;2.10;90.50;;;;;;5037004;28;20063;-73
2021/12/14 03:23:26;;;;;;;3.88;2.75;;;2.10;91.10;;;;;;5036917;28;20040;-73
2021/12/14 03:25:56;;;;;;;4.68;2.70;;;2.10;92.30;;;;;;5036988;28;20489;-73
2021/12/14 03:28:25;;;;;;;4.70;2.90;;;2.30;93.10;;;;;;5036310;28;20025;-72
2021/12/14 03:31:15;;;;;;;4.00;2.65;;;2.40;93.00;;;;;;5036315;28;20025;-72
2021/12/14 03:33:55;;;;;;;3.85;2.40;;;2.40;92.80;;;;;;5036542;28;20439;-73
2021/12/14 03:36:29;;;;;;;3.92;2.40;;;2.50;92.50;;;;;;5020275;28;20037;-73
2021/12/14 03:38:58;;;;;;;4.22;2.58;;;2.50;92.90;;;;;;5036535;28;20036;-74
2021/12/14 03:41:34;;;;;;;3.45;1.80;;;2.50;92.90;;;;;;5036483;28;20021;-73
2021/12/14 03:44:07;;;;;;;5.05;2.20;;;2.60;92.70;;;;;;5036482;28;20028;-73
2021/12/14 03:46:38;;;;;;;4.93;2.70;;;2.70;92.70;;;;;;5036700;28;20032;-73
2021/12/14 03:49:05;;;;;;;5.05;2.95;;;2.70;91.50;;;;;;5036370;28;20112;-73
2021/12/14 03:51:31;;;;;;;4.88;3.35;;;2.60;90.50;;;;;;5036512;28;20115;-73
2021/12/14 03:53:58;;;;;;;12.18;5.97;;;2.60;90.50;;;;;;5036323;28;20017;-73
2021/12/14 03:56:28;;;;;;;9.40;5.30;;;2.50;89.20;;;;;;5036109;28;20392;-73
2021/12/14 03:58:55;;;;;;;12.18;7.13;;;2.30;88.00;;;;;;5036050;28;20036;-73
2021/12/14 04:01:34;;;;;;;14.50;7.78;;;2.20;88.10;;;;;;5036142;28;20017;-73
2021/12/14 04:04:16;;;;;;;11.90;6.38;;;2.20;88.80;;;;;;5036023;28;20025;-72
2021/12/14 04:06:43;;;;;;;8.02;4.82;;;2.20;88.70;;;;;;5053970;28;20021;-73
2021/12/14 04:09:11;;;;;;;9.95;4.53;;;2.20;88.30;;;;;;5035710;28;20482;-72
2021/12/14 04:11:37;;;;;;;7.00;4.13;;;2.10;88.40;;;;;;5053550;28;20036;-72
2021/12/14 04:14:03;;;;;;;9.98;5.15;;;2.10;87.60;;;;;;5060754;28;20021;-73
2021/12/14 04:16:29;;;;;;;10.65;5.78;;;1.90;87.40;;;;;;5053764;28;20055;-73
2021/12/14 04:19:03;;;;;;;10.13;4.97;;;1.90;87.60;;;;;;5053606;28;20064;-74
2021/12/14 04:21:28;;;;;;;6.45;3.88;;;1.90;88.00;;;;;;5055271;28;20084;-73
2021/12/14 04:23:54;;;;;;;7.85;4.38;;;1.90;88.10;;;;;;5053442;28;20449;-73
2021/12/14 04:26:20;;;;;;;10.82;4.97;;;2.00;87.90;;;;;;5053522;28;20028;-73
2021/12/14 04:28:55;;;;;;;10.20;4.65;;;2.00;87.90;;;;;;5053558;28;20025;-74
2021/12/14 04:31:21;;;;;;;5.82;3.88;;;2.00;87.90;;;;;;5053552;28;20373;-74
2021/12/14 04:33:48;;;;;;;7.93;4.70;;;2.10;87.90;;;;;;5053170;28;20041;-73
2021/12/14 04:36:19;;;;;;;7.13;4.72;;;2.10;87.70;;;;;;5053181;28;20466;-73
2021/12/14 04:39:00;;;;;;;9.93;5.03;;;2.10;87.50;;;;;;5053314;28;20064;-73
2021/12/14 04:52:34;;;;;;;8.60;5.03;;;2.20;86.10;;;;;;5053414;28;20031;-73
2021/12/14 04:55:06;;;;;;;14.63;7.85;;;2.20;86.20;;;;;;5052853;28;20021;-74
2021/12/14 04:57:34;;;;;;;11.88;6.78;;;2.20;86.10;;;;;;5052777;28;20123;-75
2021/12/14 05:00:21;;;;;;;10.82;5.18;;;2.20;86.10;;;;;;5052871;28;20083;-74
2021/12/14 05:02:47;;;;;;;5.82;3.75;;;2.20;86.20;;;;;;5052902;28;20017;-75
2021/12/14 05:05:21;;;;;;;6.90;3.97;;;2.20;86.50;;;;;;5052677;28;20029;-73
2021/12/14 05:10:53;;;;;;;9.43;3.05;;;2.30;87.20;;;;;;5036678;28;20098;-72
2021/12/14 05:13:32;;;;;;;3.72;2.47;;;2.30;87.50;;;;;;5052757;28;20032;-76
2021/12/14 05:15:57;;;;;;;6.13;3.50;;;2.30;88.00;;;;;;5052718;28;20393;-74
2021/12/14 05:18:24;;;;;;;6.38;3.55;;;2.30;89.40;;;;;;5052723;28;20021;-75
2021/12/14 05:20:50;;;;;;;5.88;3.65;;;2.30;90.00;;;;;;5052768;28;20056;-74
2021/12/14 05:23:22;;;;;;;7.07;3.92;;;2.40;90.80;;;;;;5052575;28;20417;-73
2021/12/14 05:25:48;;;;;;;5.28;3.30;;;2.40;91.50;;;;;;5052585;28;20025;-72
2021/12/14 05:28:16;;;;;;;5.38;2.97;;;2.40;92.30;;;;;;5052612;28;20030;-74
2021/12/14 05:30:45;;;;;;;4.20;2.55;;;2.50;93.00;;;;;;5052508;28;20044;-75
2021/12/14 05:33:17;;;;;;;4.38;2.50;;;2.50;93.50;;;;;;5052417;28;20131;-75
2021/12/14 05:35:46;;;;;;;4.63;2.50;;;2.50;93.80;;;;;;5052085;28;20024;-74
2021/12/14 05:38:21;;;;;;;4.03;2.38;;;2.60;93.80;;;;;;5052382;28;20025;-74
2021/12/14 05:43:22;;;;;;;5.15;2.88;;;2.70;94.00;;;;;;5052485;28;20041;-76
2021/12/14 05:45:52;;;;;;;5.90;3.03;;;2.80;93.90;;;;;;5052459;28;20018;-74
2021/12/14 05:48:27;;;;;;;5.68;3.30;;;2.80;93.60;;;;;;5052409;28;20123;-73
2021/12/14 05:50:56;;;;;;;6.70;3.30;;;2.90;93.40;;;;;;5052457;28;20052;-74
2021/12/14 05:53:32;;;;;;;6.40;3.05;;;2.90;92.90;;;;;;5054637;28;20051;-75
2021/12/14 05:56:01;;;;;;;7.65;3.90;;;2.80;92.50;;;;;;5056066;28;20040;-75
2021/12/14 05:58:28;;;;;;;5.75;3.28;;;2.80;93.10;;;;;;5056195;28;20095;-74
2021/12/14 06:00:58;;;;;;;4.70;2.85;;;2.90;93.60;;;;;;5056153;28;20025;-76
2021/12/14 06:03:28;;;;;;;5.70;3.00;;;2.90;93.80;;;;;;5056043;28;20025;-75
2021/12/14 06:05:55;;;;;;;5.25;2.67;;;2.90;93.80;;;;;;5056205;28;20033;-77
2021/12/14 06:08:27;;;;;;;6.00;3.20;;;3.00;94.10;;;;;;5056158;28;20020;-77
2021/12/14 06:10:57;;;;;;;6.72;3.35;;;3.10;94.10;;;;;;5056017;28;20032;-75
2021/12/14 06:13:35;;;;;;;6.28;3.50;;;3.10;94.40;;;;;;5055767;28;20025;-75
2021/12/14 06:16:01;;;;;;;6.35;2.75;;;3.20;94.30;;;;;;5055679;28;20072;-73
2021/12/14 06:18:26;;;;;;;6.25;3.28;;;3.30;94.10;;;;;;5055474;28;20060;-75
2021/12/14 06:20:52;;;;;;;9.68;4.78;;;3.30;93.60;;;;;;5055487;28;20032;-74
2021/12/14 06:23:29;;;;;;;10.15;6.57;;;3.30;92.80;;;;;;5055129;28;20110;-73
2021/12/14 06:25:56;;;;;;;17.80;9.55;;;3.20;91.40;;;;;;5055011;28;20100;-73
2021/12/14 06:28:27;;;;;;;15.38;8.02;;;3.00;90.40;;;;;;5055215;28;20025;-73
2021/12/14 06:30:54;;;;;;;20.23;8.68;;;2.90;91.20;;;;;;5054882;28;20558;-73
2021/12/14 06:33:20;;;;;;;14.57;6.93;;;2.80;91.60;;;;;;5036722;28;20045;-74
2021/12/14 06:35:49;;;;;;;11.27;6.35;;;2.80;92.00;;;;;;5054887;28;20036;-73
2021/12/14 06:38:30;;;;;;;12.63;6.43;;;2.90;92.70;;;;;;5054989;28;20025;-73
2021/12/14 06:41:09;;;;;;;11.85;5.68;;;2.90;92.90;;;;;;5055232;28;20477;-74
2021/12/14 06:43:57;;;;;;;10.27;5.35;;;2.90;93.00;;;;;;5055173;28;20037;-73
2021/12/14 06:46:26;;;;;;;7.63;4.13;;;3.00;92.80;;;;;;5055104;28;20025;-73
2021/12/14 06:49:00;;;;;;;9.20;4.78;;;3.00;92.80;;;;;;5055201;28;20036;-72
2021/12/14 06:51:33;;;;;;;8.73;5.00;;;3.10;93.00;;;;;;5055016;28;20036;-72
2021/12/14 06:54:05;;;;;;;15.63;6.80;;;3.10;92.70;;;;;;5054922;28;20036;-73
2021/12/14 06:56:33;;;;;;;9.65;5.57;;;3.10;92.10;;;;;;5054766;28;20039;-75
2021/12/14 06:59:05;;;;;;;10.52;5.82;;;3.10;91.80;;;;;;5036957;28;20023;-74
2021/12/14 07:01:53;;;;;;;10.43;5.55;;;2.90;90.80;;;;;;5054749;28;20025;-74
2021/12/14 07:04:23;;;;;;;10.50;5.80;;;2.80;91.80;;;;;;5054782;28;20021;-78
2021/12/14 07:06:57;;;;;;;8.25;4.50;;;2.80;92.20;;;;;;5054920;28;20025;-75
2021/12/14 07:09:33;;;;;;;8.77;4.57;;;2.80;92.20;;;;;;5054802;28;20017;-77
2021/12/14 07:12:16;;;;;;;9.32;4.82;;;2.90;92.50;;;;;;5054846;28;20017;-75
2021/12/14 07:14:53;;;;;;;8.43;5.15;;;2.90;92.10;;;;;;5054637;28;20021;-73
2021/12/14 07:17:30;;;;;;;7.90;4.75;;;3.00;92.50;;;;;;5036484;28;20039;-73
2021/12/14 07:19:56;;;;;;;8.60;4.60;;;3.10;92.80;;;;;;5054669;28;20025;-75
2021/12/14 07:22:32;;;;;;;11.15;5.20;;;3.10;92.80;;;;;;5054672;28;20025;-75
2021/12/14 07:25:04;;;;;;;9.07;5.40;;;3.20;92.60;;;;;;5054472;28;20139;-75
2021/12/14 07:27:56;;;;;;;13.20;6.55;;;3.20;92.30;;;;;;5054347;28;20044;-73
2021/12/14 07:30:31;;;;;;;15.38;7.05;;;3.20;91.80;;;;;;5054352;28;20029;-75
2021/12/14 07:33:13;;;;;;;11.55;5.93;;;3.20;91.00;;;;;;5053795;28;20052;-73
2021/12/14 07:36:02;;;;;;;20.98;10.70;;;3.20;91.20;;;;;;5054187;28;20027;-74
2021/12/14 07:38:32;;;;;;;21.83;12.73;;;2.90;90.50;;;;;;5029534;28;20128;-73
2021/12/14 07:41:10;;;;;;;23.63;13.68;;;2.80;91.00;;;;;;5054258;28;20112;-74
2021/12/14 07:43:46;;;;;;;21.60;12.15;;;2.80;91.30;;;;;;5054219;28;20411;-73
2021/12/14 07:46:42;;;;;;;21.33;11.77;;;2.70;91.70;;;;;;5054001;28;20021;-77
2021/12/14 07:49:24;;;;;;;18.27;10.43;;;2.80;92.00;;;;;;5043066;28;20036;-73
2021/12/14 07:52:15;;;;;;;18.55;8.15;;;2.90;92.80;;;;;;5054046;28;20072;-73
2021/12/14 07:54:51;;;;;;;18.17;8.85;;;3.00;93.00;;;;;;5053157;28;20494;-73
2021/12/14 07:57:23;;;;;;;17.60;8.82;;;3.20;93.10;;;;;;5053702;28;20459;-73
2021/12/14 08:00:06;;;;;;;17.38;10.40;;;3.30;93.10;;;;;;5053718;28;20056;-74
2021/12/14 08:02:35;;;;;;;17.80;9.63;;;3.30;92.90;;;;;;5053603;28;20029;-74
2021/12/14 08:05:11;;;;;;;19.80;8.48;;;3.50;92.80;;;;;;5053718;28;20013;-73
2021/12/14 08:07:43;;;;;;;11.13;6.18;;;3.60;92.70;;;;;;5053653;28;20071;-74
2021/12/14 08:10:16;;;;;;;8.43;4.90;;;3.60;92.70;;;;;;5053532;28;20021;-74
2021/12/14 08:12:49;;;;;;;13.90;6.53;;;3.70;93.60;;;;;;5053488;28;20524;-74
2021/12/14 08:15:27;;;;;;;14.27;7.30;;;4.00;92.30;;;;;;5052988;28;20033;-73
2021/12/14 08:18:03;;;;;;;14.93;8.63;;;4.20;92.30;;;;;;5053291;28;20048;-73
2021/12/14 08:20:29;;;;;;;12.10;7.38;;;4.60;93.20;;;;;;5053282;28;20021;-73
2021/12/14 08:22:57;;;;;;;23.63;10.30;;;4.90;91.10;;;;;;5053252;28;20110;-74
2021/12/14 08:25:29;;;;;;;17.83;9.07;;;5.20;89.10;;;;;;5035146;28;20159;-73
2021/12/14 08:28:05;;;;;;;15.60;8.68;;;5.40;86.70;;;;;;5052991;28;20056;-73
2021/12/14 08:30:36;;;;;;;15.82;10.13;;;5.50;85.00;;;;;;5053121;28;20021;-75
2021/12/14 08:33:03;;;;;;;16.67;9.85;;;5.60;84.20;;;;;;5052949;28;20049;-74
2021/12/14 08:35:29;;;;;;;9.95;6.18;;;5.70;84.60;;;;;;5052965;28;20027;-75
2021/12/14 08:37:59;;;;;;;10.63;6.13;;;5.80;83.40;;;;;;5034786;28;20119;-74
2021/12/14 08:40:47;;;;;;;9.88;5.70;;;5.80;83.50;;;;;;5035064;28;20033;-74
2021/12/14 08:43:23;;;;;;;9.13;5.07;;;5.90;81.90;;;;;;5052938;28;20025;-74
2021/12/14 08:46:22;;;;;;;12.93;5.28;;;5.80;82.30;;;;;;5034911;28;20450;-76
2021/12/14 08:48:53;;;;;;;8.60;4.88;;;5.80;83.40;;;;;;5037060;28;20033;-77
2021/12/14 08:51:27;;;;;;;10.52;5.38;;;6.00;83.30;;;;;;5052759;28;20024;-77
2021/12/14 08:54:01;;;;;;;10.57;5.57;;;6.10;82.90;;;;;;5052643;28;20563;-75
2021/12/14 08:56:32;;;;;;;13.13;4.45;;;6.10;83.10;;;;;;5052602;28;20068;-76
2021/12/14 08:58:59;;;;;;;9.52;5.82;;;6.40;82.40;;;;;;5052625;28;20108;-75
2021/12/14 09:01:29;;;;;;;7.60;4.70;;;6.60;81.10;;;;;;5052763;28;20029;-80
2021/12/14 09:04:01;;;;;;;14.05;5.80;;;6.80;82.00;;;;;;5040020;28;20025;-73
2021/12/14 09:06:31;;;;;;;9.50;5.30;;;7.30;79.60;;;;;;5055126;28;20071;-74
2021/12/14 09:09:02;;;;;;;11.30;6.18;;;7.20;78.20;;;;;;5052592;28;20031;-73
2021/12/14 09:11:30;;;;;;;23.80;9.23;;;7.00;78.60;;;;;;5052431;28;20322;-73
2021/12/14 09:13:57;;;;;;;38.20;11.15;;;6.80;78.90;;;;;;5052760;28;20100;-73
2021/12/14 09:16:27;;;;;;;30.08;9.88;;;6.50;79.50;;;;;;5052437;28;20453;-73
2021/12/14 09:19:02;;;;;;;31.92;9.65;;;6.30;80.50;;;;;;5053567;28;20063;-73
2021/12/14 09:21:40;;;;;;;22.00;8.88;;;6.20;81.10;;;;;;5052461;28;20029;-74
2021/12/14 09:24:11;;;;;;;20.45;8.80;;;6.10;81.60;;;;;;5034298;28;20112;-73
2021/12/14 09:26:38;;;;;;;18.58;8.27;;;6.10;82.00;;;;;;5052382;28;20033;-74
2021/12/14 09:29:08;;;;;;;17.83;8.70;;;6.00;82.80;;;;;;5055845;28;20078;-73
2021/12/14 09:31:38;;;;;;;17.45;7.88;;;6.00;82.90;;;;;;5056474;28;20146;-72
2021/12/14 09:34:06;;;;;;;16.90;8.32;;;6.00;83.10;;;;;;5056336;28;20041;-73
2021/12/14 09:36:32;;;;;;;15.23;8.60;;;6.10;83.30;;;;;;5056391;28;20033;-72
2021/12/14 09:39:10;;;;;;;16.90;9.15;;;6.20;83.30;;;;;;5056307;28;20024;-73
2021/12/14 09:41:37;;;;;;;16.10;8.32;;;6.20;83.20;;;;;;5056422;28;20025;-73
2021/12/14 09:44:09;;;;;;;16.27;7.70;;;6.30;83.20;;;;;;5056039;28;20032;-73
2021/12/14 09:46:35;;;;;;;16.17;7.88;;;6.30;83.20;;;;;;5056229;28;20530;-72
2021/12/14 09:49:03;;;;;;;13.65;7.80;;;6.30;83.00;;;;;;5056133;28;20107;-74
2021/12/14 09:51:33;;;;;;;13.45;6.97;;;6.40;83.20;;;;;;5055919;28;20031;-74
2021/12/14 09:54:03;;;;;;;9.57;6.57;;;6.50;83.30;;;;;;5055908;28;20092;-74
2021/12/14 09:56:36;;;;;;;11.20;6.20;;;6.90;83.10;;;;;;5056105;28;20033;-75
2021/12/14 09:59:04;;;;;;;15.57;6.22;;;7.10;82.20;;;;;;5056023;28;20053;-73
2021/12/14 10:01:36;;;;;;;12.00;5.82;;;7.40;80.70;;;;;;5055759;28;20079;-73
2021/12/14 10:04:09;;;;;;;11.82;6.18;;;7.70;79.40;;;;;;5056089;28;20070;-75
2021/12/14 10:06:35;;;;;;;10.73;5.80;;;8.10;79.00;;;;;;5055688;28;20028;-72
2021/12/14 10:09:11;;;;;;;13.20;7.15;;;8.30;77.50;;;;;;5055752;28;20025;-73
2021/12/14 10:14:22;;;;;;;13.90;6.57;;;8.60;76.70;;;;;;5056201;28;20034;-72
2021/12/14 10:16:48;;;;;;;10.68;6.90;;;8.80;76.70;;;;;;5055755;28;20025;-74
2021/12/14 10:19:18;;;;;;;11.38;6.82;;;8.90;76.50;;;;;;5055405;28;20431;-73
2021/12/14 10:21:48;;;;;;;11.00;6.18;;;8.80;76.00;;;;;;5037452;28;20035;-73
2021/12/14 10:24:15;;;;;;;14.32;6.75;;;8.80;76.40;;;;;;5055498;28;20029;-72
2021/12/14 10:26:45;;;;;;;13.15;6.88;;;8.80;76.90;;;;;;5055531;28;20028;-72
2021/12/14 10:29:11;;;;;;;13.35;7.72;;;9.00;76.80;;;;;;5055228;28;20029;-72
2021/12/14 10:31:44;;;;;;;18.48;10.02;;;9.00;76.00;;;;;;5055126;28;20025;-72
2021/12/14 10:34:21;;;;;;;19.33;9.40;;;9.10;75.60;;;;;;5055265;28;20045;-72
2021/12/14 10:36:52;;;;;;;14.80;9.25;;;9.30;75.30;;;;;;5054655;28;20068;-73
2021/12/14 10:39:35;;;;;;;12.50;8.43;;;9.50;74.80;;;;;;5054788;28;20044;-74
2021/12/14 10:44:53;;;;;;;12.93;7.70;;;9.80;73.10;;;;;;5055094;28;20028;-74
2021/12/14 10:47:21;;;;;;;11.20;7.43;;;10.10;72.20;;;;;;5054828;28;20421;-74
2021/12/14 10:49:48;;;;;;;16.30;7.32;;;10.20;71.90;;;;;;5036833;28;20473;-74
2021/12/14 10:52:18;;;;;;;15.00;7.22;;;10.40;71.70;;;;;;5036965;28;20028;-72
2021/12/14 10:54:50;;;;;;;11.13;6.38;;;10.30;71.10;;;;;;5036931;28;20497;-72
2021/12/14 10:57:19;;;;;;;10.70;6.22;;;10.20;71.60;;;;;;5054260;28;20036;-74
2021/12/14 10:59:50;;;;;;;10.77;7.55;;;10.10;72.10;;;;;;5036353;28;20027;-73
2021/12/14 11:02:15;;;;;;;15.27;8.13;;;10.20;72.20;;;;;;5054145;28;20108;-72
2021/12/14 11:04:53;;;;;;;11.85;7.15;;;11.00;70.70;;;;;;5054502;28;20045;-72
2021/12/14 11:07:38;;;;;;;14.93;6.53;;;12.10;67.10;;;;;;5054176;28;20025;-72
2021/12/14 11:10:13;;;;;;;14.85;7.78;;;12.90;63.60;;;;;;5035733;28;20051;-72
2021/12/14 11:12:41;;;;;;;12.88;7.90;;;12.90;62.00;;;;;;5054065;28;20276;-72
2021/12/14 11:15:09;;;;;;;12.48;7.55;;;12.90;61.90;;;;;;5054119;28;20029;-74
2021/12/14 11:20:32;;;;;;;11.00;7.45;;;13.90;59.90;;;;;;5054521;28;20032;-74
2021/12/14 11:23:09;;;;;;;10.55;7.47;;;14.30;57.40;;;;;;5053982;28;20037;-73
2021/12/14 11:25:55;;;;;;;15.10;7.70;;;14.60;55.20;;;;;;5053989;28;20040;-72
2021/12/14 11:28:31;;;;;;;9.05;6.55;;;15.10;54.20;;;;;;5054045;28;20021;-72
2021/12/14 11:31:05;;;;;;;13.23;7.90;;;16.10;52.50;;;;;;5054238;28;20374;-75
2021/12/14 11:33:37;;;;;;;10.20;6.82;;;17.10;49.10;;;;;;5053743;28;20059;-73
2021/12/14 11:36:06;;;;;;;10.00;6.30;;;18.00;45.60;;;;;;5053276;28;20493;-73
2021/12/14 11:39:07;;;;;;;12.10;7.07;;;19.30;43.10;;;;;;5053742;28;20206;-71
2021/12/14 11:41:49;;;;;;;11.43;6.95;;;20.10;39.90;;;;;;5053625;28;20025;-72
2021/12/14 11:44:31;;;;;;;11.98;8.00;;;20.20;38.80;;;;;;5053884;28;20099;-73
2021/12/14 11:47:02;;;;;;;10.43;6.50;;;20.70;38.20;;;;;;5052989;28;20078;-73
2021/12/14 11:49:49;;;;;;;9.30;5.93;;;21.40;37.00;;;;;;5052794;28;20478;-73
2021/12/14 11:52:50;;;;;;;8.88;6.65;;;21.60;36.30;;;;;;5053084;28;20056;-74
2021/12/14 11:55:26;;;;;;;9.13;6.30;;;22.40;35.50;;;;;;5053533;28;20414;-72
2021/12/14 11:58:16;;;;;;;9.85;6.13;;;23.60;33.60;;;;;;5053281;28;20029;-78
2021/12/14 12:00:47;;;;;;;7.53;5.32;;;25.10;30.90;;;;;;5053374;28;20036;-78
2021/12/14 12:03:34;;;;;;;7.75;5.80;;;25.50;28.70;;;;;;5035292;28;20070;-74
2021/12/14 12:09:28;;;;;;;9.05;6.18;;;24.10;30.70;;;;;;5053299;28;20029;-74
2021/12/14 12:12:20;;;;;;;8.73;5.95;;;23.60;31.10;;;;;;5053474;28;20028;-74
2021/12/14 12:14:54;;;;;;;9.88;5.18;;;24.10;31.50;;;;;;5049496;28;20108;-74
2021/12/14 12:17:46;;;;;;;10.50;5.70;;;25.00;30.40;;;;;;5053315;28;20346;-75
2021/12/14 12:20:15;;;;;;;6.00;4.40;;;26.00;28.70;;;;;;5053013;28;20381;-72
2021/12/14 12:22:46;;;;;;;5.88;4.53;;;27.40;26.20;;;;;;5053140;28;20025;-78
2021/12/14 12:25:18;;;;;;;5.40;4.82;;;27.30;24.30;;;;;;5035016;28;20044;-74
2021/12/14 12:27:47;;;;;;;7.53;4.50;;;27.30;24.00;;;;;;5053289;28;20072;-78
2021/12/14 12:30:26;;;;;;;7.97;4.20;;;27.30;23.60;;;;;;5052936;28;20028;-78
2021/12/14 12:32:52;;;;;;;5.30;3.97;;;27.20;24.10;;;;;;5052713;28;20048;-75
2021/12/14 12:35:26;;;;;;;4.00;3.28;;;27.40;23.80;;;;;;5052738;28;20021;-73
2021/12/14 12:37:53;;;;;;;5.57;4.20;;;27.70;23.20;;;;;;5034587;28;20075;-74
2021/12/14 12:40:34;;;;;;;3.95;3.40;;;27.90;22.80;;;;;;5052730;28;20049;-76
2021/12/14 12:43:16;;;;;;;8.48;4.50;;;27.40;22.90;;;;;;5052769;28;20473;-77
2021/12/14 12:45:53;;;;;;;6.20;4.50;;;26.20;25.50;;;;;;5052464;28;20436;-76
2021/12/14 12:48:52;;;;;;;5.97;4.53;;;24.60;27.20;;;;;;5052577;28;20032;-76
2021/12/14 12:51:52;;;;;;;8.45;4.85;;;23.40;30.60;;;;;;5052573;28;20017;-75
2021/12/14 12:54:45;;;;;;;6.90;4.85;;;23.20;32.00;;;;;;5052714;28;20025;-74
2021/12/14 12:57:13;;;;;;;4.72;3.95;;;23.40;32.00;;;;;;5034509;28;20025;-74
2021/12/14 13:00:09;;;;;;;5.40;3.92;;;23.40;32.30;;;;;;5052696;28;20361;-74
2021/12/14 13:02:55;;;;;;;6.20;3.95;;;23.10;32.90;;;;;;5017376;28;20043;-74
2021/12/14 13:05:37;;;;;;;6.03;4.40;;;23.00;33.10;;;;;;5052218;28;20487;-74
2021/12/14 13:08:05;;;;;;;7.07;3.80;;;22.50;33.50;;;;;;5052622;28;20151;-74
2021/12/14 13:11:04;;;;;;;4.60;3.22;;;22.10;34.80;;;;;;5052457;28;20025;-74
2021/12/14 13:13:32;;;;;;;5.10;3.42;;;21.80;35.30;;;;;;5052680;28;20477;-74
2021/12/14 13:16:08;;;;;;;4.35;3.20;;;21.70;35.60;;;;;;5052756;28;20104;-73
2021/12/14 13:18:50;;;;;;;4.20;2.40;;;21.80;35.50;;;;;;5052658;28;20021;-74
2021/12/14 13:21:38;;;;;;;2.80;2.22;;;22.10;34.70;;;;;;5052751;28;20495;-74
2021/12/14 13:24:25;;;;;;;2.33;1.80;;;22.10;34.10;;;;;;5052209;28;20021;-73
2021/12/14 13:27:02;;;;;;;1.65;1.20;;;21.90;34.00;;;;;;5052387;28;20388;-73
2021/12/14 13:29:33;;;;;;;1.25;1.10;;;21.50;34.10;;;;;;5052491;28;20056;-74
2021/12/14 13:32:27;;;;;;;3.13;0.85;;;21.30;34.70;;;;;;5052368;28;20040;-73
2021/12/14 13:35:08;;;;;;;2.58;1.00;;;21.30;34.90;;;;;;5048312;28;20045;-75
2021/12/14 13:37:43;;;;;;;0.75;0.70;;;21.10;35.00;;;;;;5052490;28;20033;-73
2021/12/14 13:40:40;;;;;;;2.10;0.63;;;20.60;35.70;;;;;;5052354;28;20057;-73
2021/12/14 13:43:18;;;;;;;1.20;1.00;;;20.30;36.50;;;;;;5048067;28;20095;-73
2021/12/14 13:45:59;;;;;;;1.73;1.30;;;19.80;37.30;;;;;;5052212;28;20025;-73
2021/12/14 13:48:29;;;;;;;2.25;1.52;;;19.50;38.20;;;;;;5052350;28;20493;-75
2021/12/14 13:51:01;;;;;;;2.20;1.70;;;18.80;39.40;;;;;;5052346;28;20478;-74
2021/12/14 13:53:27;;;;;;;4.32;2.22;;;18.50;40.80;;;;;;5052345;28;20029;-75
2021/12/14 13:55:56;;;;;;;3.08;1.88;;;18.10;42.00;;;;;;5052250;28;20355;-73
2021/12/14 13:58:25;;;;;;;3.80;2.53;;;17.80;42.90;;;;;;5052322;28;20033;-74
2021/12/14 14:00:56;;;;;;;2.92;2.47;;;17.60;43.40;;;;;;5052226;28;20029;-74
2021/12/14 14:03:26;;;;;;;5.72;2.20;;;17.30;44.50;;;;;;5052234;28;20080;-74
2021/12/14 14:05:52;;;;;;;3.55;1.98;;;16.90;45.40;;;;;;5052235;28;20021;-74